sensor_id;sensor_type;location;lat;lon;timestamp;P1;durP1;ratioP1;P2;durP2;ratioP2
11655;SDS011;5884;43.618;1.438;2024-02-15T05:47:39;8.53;;;5.50;;
11655;SDS011;5884;43.618;1.438;2024-02-15T05:50:06;5.20;;;4.33;;
11655;SDS011;5884;43.618;1.438;2024-02-15T05:52:34;7.43;;;4.63;;
11655;SDS011;5884;43.618;1.438;2024-02-15T05:55:01;8.60;;;5.13;;
11655;SDS011;5884;43.618;1.438;2024-02-15T05:57:29;7.80;;;4.80;;
11655;SDS011;5884;43.618;1.438;2024-02-15T05:59:56;6.90;;;4.93;;
11655;SDS011;5884;43.618;1.438;2024-02-15T06:02:27;6.03;;;4.63;;
11655;SDS011;5884;43.618;1.438;2024-02-15T06:04:55;6.70;;;4.50;;
11655;SDS011;5884;43.618;1.438;2024-02-15T06:07:26;6.83;;;4.60;;
11655;SDS011;5884;43.618;1.438;2024-02-15T06:09:53;7.67;;;4.67;;
11655;SDS011;5884;43.618;1.438;2024-02-15T06:12:20;6.53;;;4.87;;
11655;SDS011;5884;43.618;1.438;2024-02-15T06:14:48;10.57;;;5.27;;
11655;SDS011;5884;43.618;1.438;2024-02-15T06:17:15;7.33;;;4.60;;
11655;SDS011;5884;43.618;1.438;2024-02-15T06:19:42;7.80;;;4.80;;
11655;SDS011;5884;43.618;1.438;2024-02-15T06:22:10;5.10;;;4.60;;
11655;SDS011;5884;43.618;1.438;2024-02-15T06:24:39;7.03;;;4.83;;
11655;SDS011;5884;43.618;1.438;2024-02-15T06:27:07;6.20;;;5.03;;
11655;SDS011;5884;43.618;1.438;2024-02-15T06:29:35;5.90;;;4.57;;
11655;SDS011;5884;43.618;1.438;2024-02-15T06:32:19;9.47;;;5.10;;
11655;SDS011;5884;43.618;1.438;2024-02-15T06:35:04;7.27;;;5.13;;
11655;SDS011;5884;43.618;1.438;2024-02-15T06:37:50;8.60;;;5.33;;
11655;SDS011;5884;43.618;1.438;2024-02-15T06:40:35;5.27;;;4.57;;
11655;SDS011;5884;43.618;1.438;2024-02-15T06:43:02;7.17;;;4.63;;
11655;SDS011;5884;43.618;1.438;2024-02-15T06:45:29;9.57;;;4.57;;
11655;SDS011;5884;43.618;1.438;2024-02-15T06:47:57;6.33;;;4.63;;
11655;SDS011;5884;43.618;1.438;2024-02-15T06:50:24;7.67;;;4.23;;
11655;SDS011;5884;43.618;1.438;2024-02-15T06:52:53;6.27;;;3.93;;
11655;SDS011;5884;43.618;1.438;2024-02-15T06:55:20;6.63;;;4.53;;
11655;SDS011;5884;43.618;1.438;2024-02-15T06:57:48;8.83;;;3.93;;
11655;SDS011;5884;43.618;1.438;2024-02-15T07:00:15;5.47;;;3.60;;
11655;SDS011;5884;43.618;1.438;2024-02-15T07:02:44;5.10;;;3.60;;
11655;SDS011;5884;43.618;1.438;2024-02-15T07:05:11;8.10;;;3.83;;
11655;SDS011;5884;43.618;1.438;2024-02-15T07:07:38;5.50;;;3.60;;
11655;SDS011;5884;43.618;1.438;2024-02-15T07:10:09;6.77;;;4.27;;
11655;SDS011;5884;43.618;1.438;2024-02-15T07:12:38;4.70;;;3.77;;
11655;SDS011;5884;43.618;1.438;2024-02-15T07:15:07;5.20;;;3.83;;
11655;SDS011;5884;43.618;1.438;2024-02-15T07:17:34;6.10;;;4.30;;
11655;SDS011;5884;43.618;1.438;2024-02-15T07:20:02;9.03;;;4.50;;
11655;SDS011;5884;43.618;1.438;2024-02-15T07:22:30;5.97;;;4.00;;
11655;SDS011;5884;43.618;1.438;2024-02-15T07:24:57;5.07;;;4.23;;
11655;SDS011;5884;43.618;1.438;2024-02-15T07:27:26;8.40;;;4.67;;
11655;SDS011;5884;43.618;1.438;2024-02-15T07:29:54;5.40;;;4.27;;
11655;SDS011;5884;43.618;1.438;2024-02-15T07:32:21;7.40;;;4.63;;
11655;SDS011;5884;43.618;1.438;2024-02-15T07:34:48;4.87;;;4.03;;
11655;SDS011;5884;43.618;1.438;2024-02-15T07:37:17;9.13;;;4.80;;
11655;SDS011;5884;43.618;1.438;2024-02-15T07:39:44;7.13;;;4.30;;
11655;SDS011;5884;43.618;1.438;2024-02-15T07:42:12;8.43;;;4.17;;
11655;SDS011;5884;43.618;1.438;2024-02-15T07:44:40;7.47;;;4.70;;
11655;SDS011;5884;43.618;1.438;2024-02-15T07:47:08;6.43;;;4.17;;
11655;SDS011;5884;43.618;1.438;2024-02-15T07:49:35;6.87;;;4.60;;
11655;SDS011;5884;43.618;1.438;2024-02-15T07:52:02;7.23;;;4.20;;
11655;SDS011;5884;43.618;1.438;2024-02-15T07:54:30;6.80;;;4.30;;
11655;SDS011;5884;43.618;1.438;2024-02-15T07:56:58;5.57;;;4.43;;
11655;SDS011;5884;43.618;1.438;2024-02-15T07:59:25;5.77;;;3.90;;
11655;SDS011;5884;43.618;1.438;2024-02-15T08:01:55;4.93;;;3.97;;
11655;SDS011;5884;43.618;1.438;2024-02-15T08:04:23;6.33;;;4.20;;
11655;SDS011;5884;43.618;1.438;2024-02-15T08:06:53;5.00;;;3.90;;
11655;SDS011;5884;43.618;1.438;2024-02-15T08:09:21;6.67;;;3.63;;
11655;SDS011;5884;43.618;1.438;2024-02-15T08:11:49;5.07;;;4.00;;
11655;SDS011;5884;43.618;1.438;2024-02-15T08:14:21;4.50;;;3.80;;
11655;SDS011;5884;43.618;1.438;2024-02-15T08:16:50;4.90;;;3.63;;
11655;SDS011;5884;43.618;1.438;2024-02-15T08:19:19;4.87;;;3.67;;
11655;SDS011;5884;43.618;1.438;2024-02-15T08:21:47;5.93;;;3.83;;
11655;SDS011;5884;43.618;1.438;2024-02-15T08:24:16;4.63;;;3.90;;
11655;SDS011;5884;43.618;1.438;2024-02-15T08:26:43;6.13;;;4.30;;
11655;SDS011;5884;43.618;1.438;2024-02-15T08:29:10;6.00;;;4.10;;
11655;SDS011;5884;43.618;1.438;2024-02-15T08:31:40;5.60;;;4.23;;
11655;SDS011;5884;43.618;1.438;2024-02-15T08:34:07;9.30;;;4.13;;
11655;SDS011;5884;43.618;1.438;2024-02-15T08:36:40;7.40;;;4.30;;
11655;SDS011;5884;43.618;1.438;2024-02-15T08:39:07;8.57;;;4.40;;
11655;SDS011;5884;43.618;1.438;2024-02-15T08:41:37;6.87;;;4.93;;
11655;SDS011;5884;43.618;1.438;2024-02-15T08:44:04;7.63;;;4.10;;
11655;SDS011;5884;43.618;1.438;2024-02-15T08:46:35;5.20;;;3.80;;
11655;SDS011;5884;43.618;1.438;2024-02-15T08:49:02;4.93;;;3.77;;
11655;SDS011;5884;43.618;1.438;2024-02-15T08:51:30;4.20;;;3.17;;
11655;SDS011;5884;43.618;1.438;2024-02-15T08:53:58;5.07;;;3.47;;
11655;SDS011;5884;43.618;1.438;2024-02-15T08:56:26;5.63;;;3.20;;
11655;SDS011;5884;43.618;1.438;2024-02-15T08:58:53;5.10;;;3.57;;
11655;SDS011;5884;43.618;1.438;2024-02-15T09:01:23;4.60;;;3.30;;
11655;SDS011;5884;43.618;1.438;2024-02-15T09:03:50;4.83;;;3.00;;
11655;SDS011;5884;43.618;1.438;2024-02-15T09:06:17;3.60;;;2.90;;
11655;SDS011;5884;43.618;1.438;2024-02-15T09:08:45;3.93;;;3.30;;
11655;SDS011;5884;43.618;1.438;2024-02-15T09:11:14;6.30;;;3.17;;
11655;SDS011;5884;43.618;1.438;2024-02-15T09:13:41;5.83;;;3.47;;
11655;SDS011;5884;43.618;1.438;2024-02-15T09:16:09;6.93;;;3.50;;
11655;SDS011;5884;43.618;1.438;2024-02-15T09:18:37;5.33;;;3.20;;
11655;SDS011;5884;43.618;1.438;2024-02-15T09:21:10;4.43;;;3.27;;
11655;SDS011;5884;43.618;1.438;2024-02-15T09:23:37;6.37;;;3.40;;
11655;SDS011;5884;43.618;1.438;2024-02-15T09:26:05;4.40;;;3.00;;
11655;SDS011;5884;43.618;1.438;2024-02-15T09:28:36;3.07;;;2.60;;
11655;SDS011;5884;43.618;1.438;2024-02-15T09:31:03;4.80;;;3.07;;
11655;SDS011;5884;43.618;1.438;2024-02-15T09:33:30;5.23;;;2.77;;
11655;SDS011;5884;43.618;1.438;2024-02-15T09:35:57;4.60;;;2.80;;
11655;SDS011;5884;43.618;1.438;2024-02-15T09:38:25;4.40;;;2.83;;
11655;SDS011;5884;43.618;1.438;2024-02-15T09:40:52;6.93;;;3.40;;
11655;SDS011;5884;43.618;1.438;2024-02-15T09:43:20;5.40;;;3.40;;
11655;SDS011;5884;43.618;1.438;2024-02-15T09:45:52;4.17;;;3.37;;
11655;SDS011;5884;43.618;1.438;2024-02-15T09:48:19;4.23;;;3.10;;
11655;SDS011;5884;43.618;1.438;2024-02-15T09:50:52;9.17;;;3.60;;
11655;SDS011;5884;43.618;1.438;2024-02-15T09:53:21;6.13;;;3.20;;
11655;SDS011;5884;43.618;1.438;2024-02-15T09:55:50;5.53;;;3.07;;
11655;SDS011;5884;43.618;1.438;2024-02-15T09:58:19;7.47;;;3.40;;
11655;SDS011;5884;43.618;1.438;2024-02-15T10:00:48;4.57;;;2.90;;
11655;SDS011;5884;43.618;1.438;2024-02-15T10:03:18;5.13;;;3.00;;
11655;SDS011;5884;43.618;1.438;2024-02-15T10:05:47;6.87;;;3.33;;
11655;SDS011;5884;43.618;1.438;2024-02-15T10:08:15;7.90;;;3.37;;
11655;SDS011;5884;43.618;1.438;2024-02-15T10:10:42;5.83;;;3.50;;
11655;SDS011;5884;43.618;1.438;2024-02-15T10:13:12;6.17;;;3.40;;
11655;SDS011;5884;43.618;1.438;2024-02-15T10:15:40;5.30;;;3.90;;
11655;SDS011;5884;43.618;1.438;2024-02-15T10:18:08;4.80;;;4.00;;
11655;SDS011;5884;43.618;1.438;2024-02-15T10:20:38;7.27;;;3.93;;
11655;SDS011;5884;43.618;1.438;2024-02-15T10:23:09;7.80;;;4.40;;
11655;SDS011;5884;43.618;1.438;2024-02-15T10:25:37;6.63;;;4.03;;
11655;SDS011;5884;43.618;1.438;2024-02-15T10:28:07;8.60;;;4.57;;
11655;SDS011;5884;43.618;1.438;2024-02-15T10:30:37;6.80;;;4.73;;
11655;SDS011;5884;43.618;1.438;2024-02-15T10:33:10;6.50;;;4.20;;
11655;SDS011;5884;43.618;1.438;2024-02-15T10:35:46;6.33;;;4.30;;
11655;SDS011;5884;43.618;1.438;2024-02-15T10:38:14;5.87;;;4.47;;
11655;SDS011;5884;43.618;1.438;2024-02-15T10:40:41;5.73;;;4.20;;
11655;SDS011;5884;43.618;1.438;2024-02-15T10:43:09;6.10;;;4.10;;
11655;SDS011;5884;43.618;1.438;2024-02-15T10:45:38;5.00;;;3.67;;
11655;SDS011;5884;43.618;1.438;2024-02-15T10:48:07;5.83;;;3.80;;
11655;SDS011;5884;43.618;1.438;2024-02-15T10:50:34;4.50;;;3.10;;
11655;SDS011;5884;43.618;1.438;2024-02-15T10:55:57;5.77;;;2.80;;
11655;SDS011;5884;43.618;1.438;2024-02-15T10:58:38;4.90;;;2.60;;
11655;SDS011;5884;43.618;1.438;2024-02-15T11:01:15;3.60;;;2.57;;
11655;SDS011;5884;43.618;1.438;2024-02-15T11:03:46;4.30;;;3.10;;
11655;SDS011;5884;43.618;1.438;2024-02-15T11:06:18;3.83;;;2.60;;
11655;SDS011;5884;43.618;1.438;2024-02-15T11:08:49;6.20;;;2.80;;
11655;SDS011;5884;43.618;1.438;2024-02-15T11:11:17;4.77;;;2.80;;
11655;SDS011;5884;43.618;1.438;2024-02-15T11:13:45;3.40;;;2.50;;
11655;SDS011;5884;43.618;1.438;2024-02-15T11:16:25;4.70;;;2.90;;
11655;SDS011;5884;43.618;1.438;2024-02-15T11:19:06;5.20;;;2.73;;
11655;SDS011;5884;43.618;1.438;2024-02-15T11:24:26;5.17;;;2.70;;
11655;SDS011;5884;43.618;1.438;2024-02-15T11:26:57;4.60;;;2.90;;
11655;SDS011;5884;43.618;1.438;2024-02-15T11:32:40;4.77;;;2.67;;
11655;SDS011;5884;43.618;1.438;2024-02-15T11:35:10;4.37;;;2.73;;
11655;SDS011;5884;43.618;1.438;2024-02-15T11:37:54;6.63;;;2.57;;
11655;SDS011;5884;43.618;1.438;2024-02-15T11:40:59;4.83;;;2.57;;
11655;SDS011;5884;43.618;1.438;2024-02-15T11:46:23;5.90;;;2.53;;
11655;SDS011;5884;43.618;1.438;2024-02-15T11:48:55;4.10;;;2.60;;
11655;SDS011;5884;43.618;1.438;2024-02-15T11:51:30;2.73;;;2.27;;
11655;SDS011;5884;43.618;1.438;2024-02-15T11:54:02;5.47;;;2.30;;
11655;SDS011;5884;43.618;1.438;2024-02-15T11:56:50;2.67;;;2.10;;
11655;SDS011;5884;43.618;1.438;2024-02-15T11:59:41;5.03;;;2.73;;
11655;SDS011;5884;43.618;1.438;2024-02-15T12:02:41;6.77;;;3.20;;
11655;SDS011;5884;43.618;1.438;2024-02-15T12:05:25;5.27;;;2.50;;
11655;SDS011;5884;43.618;1.438;2024-02-15T12:08:10;4.70;;;2.23;;
11655;SDS011;5884;43.618;1.438;2024-02-15T12:10:57;4.67;;;2.40;;
11655;SDS011;5884;43.618;1.438;2024-02-15T12:13:43;3.67;;;2.03;;
11655;SDS011;5884;43.618;1.438;2024-02-15T12:16:34;5.63;;;2.60;;
11655;SDS011;5884;43.618;1.438;2024-02-15T12:19:19;3.50;;;2.00;;
11655;SDS011;5884;43.618;1.438;2024-02-15T12:21:47;7.67;;;2.30;;
11655;SDS011;5884;43.618;1.438;2024-02-15T12:24:15;4.67;;;2.37;;
11655;SDS011;5884;43.618;1.438;2024-02-15T12:26:45;4.10;;;2.10;;
11655;SDS011;5884;43.618;1.438;2024-02-15T12:29:17;4.30;;;2.60;;
11655;SDS011;5884;43.618;1.438;2024-02-15T12:31:44;5.43;;;2.23;;
11655;SDS011;5884;43.618;1.438;2024-02-15T12:34:12;4.30;;;2.00;;
11655;SDS011;5884;43.618;1.438;2024-02-15T12:36:41;5.07;;;2.20;;
11655;SDS011;5884;43.618;1.438;2024-02-15T12:39:08;7.40;;;2.80;;
11655;SDS011;5884;43.618;1.438;2024-02-15T12:41:42;3.40;;;2.33;;
11655;SDS011;5884;43.618;1.438;2024-02-15T12:44:17;4.37;;;1.93;;
11655;SDS011;5884;43.618;1.438;2024-02-15T12:46:45;6.20;;;2.70;;
11655;SDS011;5884;43.618;1.438;2024-02-15T12:49:27;5.73;;;2.60;;
11655;SDS011;5884;43.618;1.438;2024-02-15T12:55:09;5.10;;;2.00;;
11655;SDS011;5884;43.618;1.438;2024-02-15T12:57:39;3.33;;;2.20;;
11655;SDS011;5884;43.618;1.438;2024-02-15T13:00:11;5.40;;;2.23;;
11655;SDS011;5884;43.618;1.438;2024-02-15T13:02:43;5.43;;;2.60;;
11655;SDS011;5884;43.618;1.438;2024-02-15T13:05:11;4.33;;;2.20;;
11655;SDS011;5884;43.618;1.438;2024-02-15T13:07:39;4.07;;;2.10;;
11655;SDS011;5884;43.618;1.438;2024-02-15T13:10:06;5.07;;;2.30;;
11655;SDS011;5884;43.618;1.438;2024-02-15T13:12:35;4.00;;;2.10;;
11655;SDS011;5884;43.618;1.438;2024-02-15T13:15:03;5.07;;;2.17;;
11655;SDS011;5884;43.618;1.438;2024-02-15T13:17:38;3.87;;;1.83;;
11655;SDS011;5884;43.618;1.438;2024-02-15T13:20:05;4.07;;;1.90;;
11655;SDS011;5884;43.618;1.438;2024-02-15T13:22:36;3.67;;;1.80;;
11655;SDS011;5884;43.618;1.438;2024-02-15T13:25:04;6.47;;;1.83;;
11655;SDS011;5884;43.618;1.438;2024-02-15T13:27:33;3.47;;;2.00;;
11655;SDS011;5884;43.618;1.438;2024-02-15T13:30:03;3.23;;;1.80;;
11655;SDS011;5884;43.618;1.438;2024-02-15T13:32:34;3.57;;;2.00;;
11655;SDS011;5884;43.618;1.438;2024-02-15T13:35:05;6.23;;;2.07;;
11655;SDS011;5884;43.618;1.438;2024-02-15T13:37:39;4.23;;;2.10;;
11655;SDS011;5884;43.618;1.438;2024-02-15T13:40:08;4.37;;;1.87;;
11655;SDS011;5884;43.618;1.438;2024-02-15T13:42:41;3.67;;;2.07;;
11655;SDS011;5884;43.618;1.438;2024-02-15T13:45:14;3.97;;;2.13;;
11655;SDS011;5884;43.618;1.438;2024-02-15T13:47:43;3.93;;;2.20;;
11655;SDS011;5884;43.618;1.438;2024-02-15T13:50:14;4.37;;;2.20;;
11655;SDS011;5884;43.618;1.438;2024-02-15T13:52:42;3.87;;;2.23;;
11655;SDS011;5884;43.618;1.438;2024-02-15T13:55:10;7.03;;;1.90;;
11655;SDS011;5884;43.618;1.438;2024-02-15T13:57:38;6.90;;;2.20;;
11655;SDS011;5884;43.618;1.438;2024-02-15T14:00:07;4.60;;;2.23;;
11655;SDS011;5884;43.618;1.438;2024-02-15T14:02:39;4.93;;;2.20;;
11655;SDS011;5884;43.618;1.438;2024-02-15T14:05:08;5.57;;;1.90;;
11655;SDS011;5884;43.618;1.438;2024-02-15T14:07:40;3.30;;;2.00;;
11655;SDS011;5884;43.618;1.438;2024-02-15T14:10:08;4.67;;;1.73;;
11655;SDS011;5884;43.618;1.438;2024-02-15T14:12:37;3.30;;;1.60;;
11655;SDS011;5884;43.618;1.438;2024-02-15T14:15:05;3.33;;;1.90;;
11655;SDS011;5884;43.618;1.438;2024-02-15T14:17:33;2.63;;;1.63;;
11655;SDS011;5884;43.618;1.438;2024-02-15T14:20:00;3.80;;;2.07;;
11655;SDS011;5884;43.618;1.438;2024-02-15T14:22:30;5.30;;;1.77;;
11655;SDS011;5884;43.618;1.438;2024-02-15T14:24:58;4.17;;;1.93;;
11655;SDS011;5884;43.618;1.438;2024-02-15T14:27:25;4.13;;;1.90;;
11655;SDS011;5884;43.618;1.438;2024-02-15T14:29:52;3.40;;;1.70;;
11655;SDS011;5884;43.618;1.438;2024-02-15T14:32:37;4.17;;;2.00;;
11655;SDS011;5884;43.618;1.438;2024-02-15T14:35:22;3.77;;;1.70;;
11655;SDS011;5884;43.618;1.438;2024-02-15T14:37:49;3.17;;;1.40;;
11655;SDS011;5884;43.618;1.438;2024-02-15T14:40:18;3.90;;;2.00;;
11655;SDS011;5884;43.618;1.438;2024-02-15T14:42:45;3.93;;;1.50;;
11655;SDS011;5884;43.618;1.438;2024-02-15T14:45:12;2.67;;;1.50;;
11655;SDS011;5884;43.618;1.438;2024-02-15T14:47:39;3.87;;;1.97;;
11655;SDS011;5884;43.618;1.438;2024-02-15T14:50:07;3.87;;;1.70;;
11655;SDS011;5884;43.618;1.438;2024-02-15T14:52:38;3.47;;;1.67;;
11655;SDS011;5884;43.618;1.438;2024-02-15T14:55:05;4.07;;;1.80;;
11655;SDS011;5884;43.618;1.438;2024-02-15T14:57:35;6.00;;;2.27;;
11655;SDS011;5884;43.618;1.438;2024-02-15T15:00:03;4.17;;;2.40;;
11655;SDS011;5884;43.618;1.438;2024-02-15T15:02:36;5.47;;;2.00;;
11655;SDS011;5884;43.618;1.438;2024-02-15T15:05:03;3.60;;;2.40;;
11655;SDS011;5884;43.618;1.438;2024-02-15T15:07:49;3.67;;;2.33;;
11655;SDS011;5884;43.618;1.438;2024-02-15T15:10:34;3.43;;;1.83;;
11655;SDS011;5884;43.618;1.438;2024-02-15T15:13:20;5.60;;;1.97;;
11655;SDS011;5884;43.618;1.438;2024-02-15T15:15:48;2.63;;;2.30;;
11655;SDS011;5884;43.618;1.438;2024-02-15T15:18:15;5.80;;;2.67;;
11655;SDS011;5884;43.618;1.438;2024-02-15T15:20:42;5.33;;;2.67;;
11655;SDS011;5884;43.618;1.438;2024-02-15T15:23:10;6.17;;;2.80;;
11655;SDS011;5884;43.618;1.438;2024-02-15T15:25:38;4.00;;;2.40;;
11655;SDS011;5884;43.618;1.438;2024-02-15T15:28:06;3.80;;;2.57;;
11655;SDS011;5884;43.618;1.438;2024-02-15T15:30:34;6.30;;;3.10;;
11655;SDS011;5884;43.618;1.438;2024-02-15T15:33:02;5.80;;;3.23;;
11655;SDS011;5884;43.618;1.438;2024-02-15T15:35:30;5.90;;;3.40;;
11655;SDS011;5884;43.618;1.438;2024-02-15T15:37:59;6.63;;;3.63;;
11655;SDS011;5884;43.618;1.438;2024-02-15T15:40:26;11.00;;;3.87;;
11655;SDS011;5884;43.618;1.438;2024-02-15T15:42:54;8.23;;;3.70;;
11655;SDS011;5884;43.618;1.438;2024-02-15T15:45:21;8.97;;;4.20;;
11655;SDS011;5884;43.618;1.438;2024-02-15T15:47:50;10.60;;;4.43;;
11655;SDS011;5884;43.618;1.438;2024-02-15T15:50:20;8.63;;;4.43;;
11655;SDS011;5884;43.618;1.438;2024-02-15T15:52:48;8.13;;;3.90;;
11655;SDS011;5884;43.618;1.438;2024-02-15T15:55:15;7.50;;;3.90;;
11655;SDS011;5884;43.618;1.438;2024-02-15T15:57:43;8.03;;;4.67;;
11655;SDS011;5884;43.618;1.438;2024-02-15T16:00:12;6.23;;;4.07;;
11655;SDS011;5884;43.618;1.438;2024-02-15T16:02:41;10.70;;;4.03;;
11655;SDS011;5884;43.618;1.438;2024-02-15T16:05:12;8.33;;;4.13;;
11655;SDS011;5884;43.618;1.438;2024-02-15T16:07:41;9.53;;;4.30;;
11655;SDS011;5884;43.618;1.438;2024-02-15T16:10:08;12.80;;;5.17;;
11655;SDS011;5884;43.618;1.438;2024-02-15T16:12:36;11.37;;;4.93;;
11655;SDS011;5884;43.618;1.438;2024-02-15T16:15:04;10.17;;;4.30;;
11655;SDS011;5884;43.618;1.438;2024-02-15T16:17:34;10.73;;;4.60;;
11655;SDS011;5884;43.618;1.438;2024-02-15T16:20:04;12.50;;;4.90;;
11655;SDS011;5884;43.618;1.438;2024-02-15T16:22:35;12.50;;;5.03;;
11655;SDS011;5884;43.618;1.438;2024-02-15T16:25:04;9.13;;;4.97;;
11655;SDS011;5884;43.618;1.438;2024-02-15T16:27:34;10.50;;;5.50;;
11655;SDS011;5884;43.618;1.438;2024-02-15T16:30:03;13.00;;;5.00;;
11655;SDS011;5884;43.618;1.438;2024-02-15T16:32:33;11.57;;;4.83;;
11655;SDS011;5884;43.618;1.438;2024-02-15T16:35:02;14.43;;;4.47;;
11655;SDS011;5884;43.618;1.438;2024-02-15T16:37:36;14.43;;;5.67;;
11655;SDS011;5884;43.618;1.438;2024-02-15T16:40:09;15.27;;;7.10;;
11655;SDS011;5884;43.618;1.438;2024-02-15T16:42:40;14.20;;;5.13;;
11655;SDS011;5884;43.618;1.438;2024-02-15T16:45:09;10.17;;;4.57;;
11655;SDS011;5884;43.618;1.438;2024-02-15T16:47:37;11.53;;;4.30;;
11655;SDS011;5884;43.618;1.438;2024-02-15T16:50:04;14.27;;;4.70;;
11655;SDS011;5884;43.618;1.438;2024-02-15T16:52:33;13.87;;;5.20;;
11655;SDS011;5884;43.618;1.438;2024-02-15T16:55:03;13.30;;;4.70;;
11655;SDS011;5884;43.618;1.438;2024-02-15T16:57:32;10.33;;;4.53;;
11655;SDS011;5884;43.618;1.438;2024-02-15T16:59:59;10.47;;;4.87;;
11655;SDS011;5884;43.618;1.438;2024-02-15T17:02:30;12.63;;;4.43;;
11655;SDS011;5884;43.618;1.438;2024-02-15T17:04:57;11.97;;;4.60;;
11655;SDS011;5884;43.618;1.438;2024-02-15T17:07:24;13.73;;;4.63;;
11655;SDS011;5884;43.618;1.438;2024-02-15T17:09:52;13.17;;;4.90;;
11655;SDS011;5884;43.618;1.438;2024-02-15T17:12:21;12.57;;;4.67;;
11655;SDS011;5884;43.618;1.438;2024-02-15T17:14:48;11.30;;;4.53;;
11655;SDS011;5884;43.618;1.438;2024-02-15T17:17:15;13.07;;;4.40;;
11655;SDS011;5884;43.618;1.438;2024-02-15T17:19:43;8.57;;;4.10;;
11655;SDS011;5884;43.618;1.438;2024-02-15T17:22:11;12.47;;;3.90;;
11655;SDS011;5884;43.618;1.438;2024-02-15T17:24:38;8.10;;;3.77;;
11655;SDS011;5884;43.618;1.438;2024-02-15T17:27:08;12.80;;;4.00;;
11655;SDS011;5884;43.618;1.438;2024-02-15T17:29:37;8.63;;;3.80;;
11655;SDS011;5884;43.618;1.438;2024-02-15T17:32:04;10.00;;;3.63;;
11655;SDS011;5884;43.618;1.438;2024-02-15T17:34:32;12.00;;;4.63;;
11655;SDS011;5884;43.618;1.438;2024-02-15T17:37:00;12.83;;;3.60;;
11655;SDS011;5884;43.618;1.438;2024-02-15T17:39:27;10.30;;;4.00;;
11655;SDS011;5884;43.618;1.438;2024-02-15T17:41:54;11.30;;;3.60;;
11655;SDS011;5884;43.618;1.438;2024-02-15T17:44:21;14.30;;;4.17;;
11655;SDS011;5884;43.618;1.438;2024-02-15T17:46:50;11.50;;;3.47;;
11655;SDS011;5884;43.618;1.438;2024-02-15T17:49:18;8.80;;;3.57;;
11655;SDS011;5884;43.618;1.438;2024-02-15T17:51:45;12.70;;;3.60;;
11655;SDS011;5884;43.618;1.438;2024-02-15T17:54:12;15.33;;;3.60;;
11655;SDS011;5884;43.618;1.438;2024-02-15T17:56:39;15.87;;;3.27;;
11655;SDS011;5884;43.618;1.438;2024-02-15T17:59:07;11.10;;;3.53;;
11655;SDS011;5884;43.618;1.438;2024-02-15T18:01:36;8.13;;;3.30;;
11655;SDS011;5884;43.618;1.438;2024-02-15T18:04:05;9.40;;;3.10;;
11655;SDS011;5884;43.618;1.438;2024-02-15T18:06:33;12.43;;;4.03;;
11655;SDS011;5884;43.618;1.438;2024-02-15T18:09:00;10.40;;;3.17;;
11655;SDS011;5884;43.618;1.438;2024-02-15T18:11:27;9.97;;;2.87;;
11655;SDS011;5884;43.618;1.438;2024-02-15T18:13:54;15.20;;;3.27;;
11655;SDS011;5884;43.618;1.438;2024-02-15T18:16:24;11.23;;;2.90;;
11655;SDS011;5884;43.618;1.438;2024-02-15T18:18:51;10.03;;;3.67;;
11655;SDS011;5884;43.618;1.438;2024-02-15T18:21:22;16.20;;;3.63;;
11655;SDS011;5884;43.618;1.438;2024-02-15T18:23:50;14.47;;;3.07;;
11655;SDS011;5884;43.618;1.438;2024-02-15T18:26:17;12.63;;;3.63;;
11655;SDS011;5884;43.618;1.438;2024-02-15T18:28:44;8.47;;;3.07;;
11655;SDS011;5884;43.618;1.438;2024-02-15T18:31:11;9.03;;;3.23;;
11655;SDS011;5884;43.618;1.438;2024-02-15T18:33:39;10.73;;;2.87;;
11655;SDS011;5884;43.618;1.438;2024-02-15T18:36:06;7.33;;;2.47;;
11655;SDS011;5884;43.618;1.438;2024-02-15T18:38:35;10.90;;;3.47;;
11655;SDS011;5884;43.618;1.438;2024-02-15T18:41:03;12.83;;;3.20;;
11655;SDS011;5884;43.618;1.438;2024-02-15T18:43:31;7.77;;;2.33;;
11655;SDS011;5884;43.618;1.438;2024-02-15T18:45:59;8.60;;;3.07;;
11655;SDS011;5884;43.618;1.438;2024-02-15T18:48:26;13.03;;;3.30;;
11655;SDS011;5884;43.618;1.438;2024-02-15T18:50:56;9.20;;;3.00;;
11655;SDS011;5884;43.618;1.438;2024-02-15T18:53:23;8.43;;;2.83;;
11655;SDS011;5884;43.618;1.438;2024-02-15T18:55:52;8.37;;;2.93;;
11655;SDS011;5884;43.618;1.438;2024-02-15T18:58:20;10.00;;;3.17;;
11655;SDS011;5884;43.618;1.438;2024-02-15T19:00:50;9.40;;;2.37;;
11655;SDS011;5884;43.618;1.438;2024-02-15T19:03:17;7.13;;;2.63;;
11655;SDS011;5884;43.618;1.438;2024-02-15T19:05:45;11.10;;;2.40;;
11655;SDS011;5884;43.618;1.438;2024-02-15T19:08:13;12.30;;;2.83;;
11655;SDS011;5884;43.618;1.438;2024-02-15T19:10:41;10.33;;;2.90;;
11655;SDS011;5884;43.618;1.438;2024-02-15T19:13:10;12.27;;;3.10;;
11655;SDS011;5884;43.618;1.438;2024-02-15T19:15:37;11.70;;;3.13;;
11655;SDS011;5884;43.618;1.438;2024-02-15T19:18:05;10.50;;;3.27;;
11655;SDS011;5884;43.618;1.438;2024-02-15T19:20:33;9.53;;;2.73;;
11655;SDS011;5884;43.618;1.438;2024-02-15T19:23:00;8.13;;;2.60;;
11655;SDS011;5884;43.618;1.438;2024-02-15T19:25:31;9.17;;;2.57;;
11655;SDS011;5884;43.618;1.438;2024-02-15T19:27:58;8.87;;;2.57;;
11655;SDS011;5884;43.618;1.438;2024-02-15T19:30:31;9.77;;;2.67;;
11655;SDS011;5884;43.618;1.438;2024-02-15T19:32:58;9.20;;;2.77;;
11655;SDS011;5884;43.618;1.438;2024-02-15T19:35:25;11.50;;;2.93;;
11655;SDS011;5884;43.618;1.438;2024-02-15T19:37:55;8.43;;;2.50;;
11655;SDS011;5884;43.618;1.438;2024-02-15T19:40:22;12.37;;;2.70;;
11655;SDS011;5884;43.618;1.438;2024-02-15T19:42:50;7.93;;;2.70;;
11655;SDS011;5884;43.618;1.438;2024-02-15T19:45:17;13.10;;;2.87;;
11655;SDS011;5884;43.618;1.438;2024-02-15T19:47:46;12.10;;;4.03;;
11655;SDS011;5884;43.618;1.438;2024-02-15T19:50:14;9.87;;;3.23;;
11655;SDS011;5884;43.618;1.438;2024-02-15T19:52:46;9.27;;;2.73;;
11655;SDS011;5884;43.618;1.438;2024-02-15T19:55:13;9.33;;;2.83;;
11655;SDS011;5884;43.618;1.438;2024-02-15T19:57:41;6.43;;;2.70;;
11655;SDS011;5884;43.618;1.438;2024-02-15T20:00:09;12.03;;;3.37;;
11655;SDS011;5884;43.618;1.438;2024-02-15T20:02:39;9.40;;;3.17;;
11655;SDS011;5884;43.618;1.438;2024-02-15T20:05:09;12.80;;;2.80;;
11655;SDS011;5884;43.618;1.438;2024-02-15T20:07:36;8.67;;;3.40;;
11655;SDS011;5884;43.618;1.438;2024-02-15T20:10:04;9.90;;;3.23;;
11655;SDS011;5884;43.618;1.438;2024-02-15T20:12:32;11.80;;;3.50;;
11655;SDS011;5884;43.618;1.438;2024-02-15T20:15:00;11.50;;;3.87;;
11655;SDS011;5884;43.618;1.438;2024-02-15T20:17:27;12.17;;;3.73;;
11655;SDS011;5884;43.618;1.438;2024-02-15T20:19:55;9.27;;;3.23;;
11655;SDS011;5884;43.618;1.438;2024-02-15T20:22:23;8.70;;;3.70;;
11655;SDS011;5884;43.618;1.438;2024-02-15T20:24:50;8.50;;;2.87;;
11655;SDS011;5884;43.618;1.438;2024-02-15T20:27:17;10.63;;;2.97;;
11655;SDS011;5884;43.618;1.438;2024-02-15T20:29:46;14.47;;;3.63;;
11655;SDS011;5884;43.618;1.438;2024-02-15T20:32:15;10.17;;;3.13;;
11655;SDS011;5884;43.618;1.438;2024-02-15T20:34:43;7.43;;;2.60;;
11655;SDS011;5884;43.618;1.438;2024-02-15T20:37:12;11.60;;;3.13;;
11655;SDS011;5884;43.618;1.438;2024-02-15T20:39:41;7.63;;;2.97;;
11655;SDS011;5884;43.618;1.438;2024-02-15T20:42:09;9.57;;;2.90;;
11655;SDS011;5884;43.618;1.438;2024-02-15T20:44:39;9.03;;;2.97;;
11655;SDS011;5884;43.618;1.438;2024-02-15T20:47:08;12.43;;;3.30;;
11655;SDS011;5884;43.618;1.438;2024-02-15T20:49:36;13.40;;;3.47;;
11655;SDS011;5884;43.618;1.438;2024-02-15T20:52:04;10.23;;;3.40;;
11655;SDS011;5884;43.618;1.438;2024-02-15T20:54:33;10.53;;;3.20;;
11655;SDS011;5884;43.618;1.438;2024-02-15T20:57:01;13.57;;;3.53;;
11655;SDS011;5884;43.618;1.438;2024-02-15T20:59:29;9.50;;;3.57;;
11655;SDS011;5884;43.618;1.438;2024-02-15T21:01:56;9.97;;;2.70;;
11655;SDS011;5884;43.618;1.438;2024-02-15T21:04:26;8.87;;;3.30;;
11655;SDS011;5884;43.618;1.438;2024-02-15T21:06:53;11.33;;;2.93;;
11655;SDS011;5884;43.618;1.438;2024-02-15T21:09:20;12.80;;;2.80;;
11655;SDS011;5884;43.618;1.438;2024-02-15T21:11:47;8.80;;;2.47;;
11655;SDS011;5884;43.618;1.438;2024-02-15T21:14:15;11.33;;;2.57;;